| time (UTC) | temp F | wind direction | speed MPH | gust MPH | rain 1hr in | rain 24hr in | rain mn in | humidity % | barometer mb |
| 20260905222624 | 88 | 98 | 4.0 | 14.0 | 0.00 | 0.00 | 0.00 | 14 | 1015.6 |
| 20260905222134 | 88 | 212 | 3.0 | 11.0 | 0.00 | 0.00 | 0.00 | 16 | 1015.6 |
| 20260905221614 | 87 | 235 | 4.0 | 11.0 | 0.00 | 0.00 | 0.00 | 15 | 1015.7 |
| 20260905221115 | 87 | 168 | 6.0 | 12.0 | 0.00 | 0.00 | 0.00 | 15 | 1015.7 |
| 20260905220614 | 87 | 158 | 6.0 | 13.0 | 0.00 | 0.00 | 0.00 | 15 | 1015.7 |
| 20260905220123 | 87 | 141 | 4.0 | 13.0 | 0.00 | 0.00 | 0.00 | 16 | 1015.8 |
| 20260905215631 | 87 | 135 | 6.0 | 12.0 | 0.00 | 0.00 | 0.00 | 16 | 1015.9 |
| 20260905215112 | 87 | 169 | 5.0 | 12.0 | 0.00 | 0.00 | 0.00 | 15 | 1015.9 |
| 20260905214614 | 87 | 183 | 7.0 | 14.0 | 0.00 | 0.00 | 0.00 | 15 | 1016.2 |
| 20260905214114 | 87 | 129 | 4.0 | 13.0 | 0.00 | 0.00 | 0.00 | 16 | 1016.1 |
| 20260905213624 | 88 | 129 | 6.0 | 13.0 | 0.00 | 0.00 | 0.00 | 15 | 1016.2 |
| 20260905213126 | 87 | 145 | 5.0 | 12.0 | 0.00 | 0.00 | 0.00 | 17 | 1016.2 |
| 20260905212635 | 87 | 131 | 6.0 | 12.0 | 0.00 | 0.00 | 0.00 | 16 | 1016.3 |
| 20260905212115 | 87 | 226 | 3.0 | 13.0 | 0.00 | 0.00 | 0.00 | 16 | 1016.3 |
| 20260905211624 | 87 | 18 | 4.0 | 13.0 | 0.00 | 0.00 | 0.00 | 16 | 1016.4 |
| 20260905211134 | 87 | 268 | 5.0 | 12.0 | 0.00 | 0.00 | 0.00 | 15 | 1016.5 |
| 20260905210612 | 87 | 113 | 4.0 | 10.0 | 0.00 | 0.00 | 0.00 | 16 | 1016.4 |
| 20260905210122 | 87 | 203 | 5.0 | 12.0 | 0.00 | 0.00 | 0.00 | 17 | 1016.5 |
| 20260905205621 | 87 | 220 | 4.0 | 14.0 | 0.00 | 0.00 | 0.00 | 16 | 1016.6 |
| 20260905205129 | 87 | 187 | 6.0 | 14.0 | 0.00 | 0.00 | 0.00 | 15 | 1016.7 |
| 20260905204630 | 87 | 353 | 3.0 | 12.0 | 0.00 | 0.00 | 0.00 | 17 | 1016.7 |
| 20260905204131 | 86 | 136 | 4.0 | 12.0 | 0.00 | 0.00 | 0.00 | 17 | 1016.8 |
| 20260905203612 | 87 | 130 | 4.0 | 12.0 | 0.00 | 0.00 | 0.00 | 16 | 1016.8 |
| 20260905203120 | 87 | 205 | 5.0 | 12.0 | 0.00 | 0.00 | 0.00 | 17 | 1016.8 |
| 20260905202622 | 86 | 217 | 3.0 | 10.0 | 0.00 | 0.00 | 0.00 | 17 | 1016.8 |
| 20260905202150 | 86 | 218 | 3.0 | 7.0 | 0.00 | 0.00 | 0.00 | 18 | 1016.8 |
| 20260905201657 | 86 | 163 | 3.0 | 17.0 | 0.00 | 0.00 | 0.00 | 17 | 1017.0 |
| 20260905201117 | 85 | 135 | 5.0 | 19.0 | 0.00 | 0.00 | 0.00 | 17 | 1017.1 |
| 20260905200619 | 86 | 154 | 3.0 | 10.0 | 0.00 | 0.00 | 0.00 | 18 | 1017.1 |
| 20260905200126 | 86 | 237 | 6.0 | 13.0 | 0.00 | 0.00 | 0.00 | 17 | 1017.2 |
| 20260905195626 | 86 | 264 | 4.0 | 11.0 | 0.00 | 0.00 | 0.00 | 17 | 1017.2 |
| 20260905195126 | 85 | 183 | 3.0 | 9.0 | 0.00 | 0.00 | 0.00 | 18 | 1017.2 |
| 20260905194615 | 85 | 108 | 4.0 | 11.0 | 0.00 | 0.00 | 0.00 | 18 | 1017.2 |
| 20260905194117 | 84 | 213 | 4.0 | 15.0 | 0.00 | 0.00 | 0.00 | 18 | 1017.2 |
| 20260905193626 | 85 | 213 | 6.0 | 15.0 | 0.00 | 0.00 | 0.00 | 18 | 1017.2 |
| 20260905193127 | 84 | 214 | 3.0 | 14.0 | 0.00 | 0.00 | 0.00 | 18 | 1017.3 |
| 20260905192636 | 84 | 188 | 4.0 | 14.0 | 0.00 | 0.00 | 0.00 | 19 | 1017.4 |
| 20260905192115 | 84 | 202 | 6.0 | 16.0 | 0.00 | 0.00 | 0.00 | 18 | 1017.5 |
| 20260905191637 | 84 | 192 | 8.0 | 16.0 | 0.00 | 0.00 | 0.00 | 17 | 1017.6 |
| 20260905191143 | 84 | 201 | 2.0 | 8.0 | 0.00 | 0.00 | 0.00 | 20 | 1017.7 |
| 20260905190624 | 84 | 13 | 2.0 | 14.0 | 0.00 | 0.00 | 0.00 | 20 | 1017.8 |
| 20260905190112 | 83 | 2 | 3.0 | 14.0 | 0.00 | 0.00 | 0.00 | 19 | 1017.9 |
| 20260905185614 | 83 | 163 | 6.0 | 13.0 | 0.00 | 0.00 | 0.00 | 19 | 1017.9 |
| 20260905185143 | 83 | 126 | 5.0 | 13.0 | 0.00 | 0.00 | 0.00 | 18 | 1018.0 |
| 20260905184623 | 83 | 212 | 5.0 | 13.0 | 0.00 | 0.00 | 0.00 | 18 | 1018.0 |
| 20260905184132 | 83 | 146 | 6.0 | 13.0 | 0.00 | 0.00 | 0.00 | 18 | 1018.1 |
| 20260905183613 | 83 | 153 | 4.0 | 13.0 | 0.00 | 0.00 | 0.00 | 20 | 1018.2 |
| 20260905183113 | 83 | 184 | 4.0 | 13.0 | 0.00 | 0.00 | 0.00 | 20 | 1018.3 |
| 20260905182614 | 83 | 213 | 5.0 | 13.0 | 0.00 | 0.00 | 0.00 | 19 | 1018.3 |
| 20260905182123 | 83 | 197 | 2.0 | 12.0 | 0.00 | 0.00 | 0.00 | 21 | 1018.4 |
| 20260905181623 | 83 | 152 | 7.0 | 12.0 | 0.00 | 0.00 | 0.00 | 18 | 1018.3 |
| 20260905181132 | 83 | 310 | 2.0 | 6.0 | 0.00 | 0.00 | 0.00 | 20 | 1018.4 |
| 20260905180614 | 83 | 20 | 2.0 | 10.0 | 0.00 | 0.00 | 0.00 | 21 | 1018.5 |
| 20260905180115 | 82 | 297 | 2.0 | 10.0 | 0.00 | 0.00 | 0.00 | 20 | 1018.6 |
| 20260905175624 | 82 | 207 | 4.0 | 12.0 | 0.00 | 0.00 | 0.00 | 19 | 1018.6 |
| 20260905175124 | 82 | 195 | 4.0 | 12.0 | 0.00 | 0.00 | 0.00 | 20 | 1018.6 |
| 20260905174633 | 82 | 203 | 3.0 | 10.0 | 0.00 | 0.00 | 0.00 | 20 | 1018.7 |
| 20260905174115 | 81 | 232 | 5.0 | 11.0 | 0.00 | 0.00 | 0.00 | 19 | 1018.7 |
| 20260905173616 | 81 | 128 | 3.0 | 6.0 | 0.00 | 0.00 | 0.00 | 20 | 1018.8 |
| 20260905173117 | 81 | 20 | 2.0 | 12.0 | 0.00 | 0.00 | 0.00 | 20 | 1018.7 |
| 20260905172625 | 80 | 205 | 4.0 | 15.0 | 0.00 | 0.00 | 0.00 | 19 | 1018.8 |
| 20260905172126 | 80 | 185 | 4.0 | 15.0 | 0.00 | 0.00 | 0.00 | 20 | 1018.8 |
| 20260905171635 | 80 | 205 | 4.0 | 11.0 | 0.00 | 0.00 | 0.00 | 20 | 1018.9 |
| 20260905171116 | 81 | 150 | 2.0 | 11.0 | 0.00 | 0.00 | 0.00 | 20 | 1018.9 |
| 20260905170618 | 81 | 256 | 4.0 | 8.0 | 0.00 | 0.00 | 0.00 | 20 | 1019.0 |
| 20260905170125 | 81 | 254 | 2.0 | 8.0 | 0.00 | 0.00 | 0.00 | 21 | 1019.0 |
| 20260905165627 | 81 | 226 | 3.0 | 8.0 | 0.00 | 0.00 | 0.00 | 21 | 1018.9 |
| 20260905165112 | 80 | 197 | 3.0 | 8.0 | 0.00 | 0.00 | 0.00 | 20 | 1018.9 |
| 20260905164620 | 80 | 293 | 3.0 | 9.0 | 0.00 | 0.00 | 0.00 | 21 | 1018.9 |
| 20260905164136 | 80 | 180 | 3.0 | 9.0 | 0.00 | 0.00 | 0.00 | 22 | 1018.9 |
| 20260905163623 | 80 | 147 | 3.0 | 9.0 | 0.00 | 0.00 | 0.00 | 21 | 1018.9 |
| 20260905163124 | 80 | 240 | 3.0 | 12.0 | 0.00 | 0.00 | 0.00 | 21 | 1018.9 |
| 20260905162626 | 80 | 211 | 3.0 | 12.0 | 0.00 | 0.00 | 0.00 | 21 | 1018.9 |
| 20260905162133 | 80 | 195 | 5.0 | 9.0 | 0.00 | 0.00 | 0.00 | 21 | 1018.9 |
| 20260905161636 | 80 | 140 | 2.0 | 8.0 | 0.00 | 0.00 | 0.00 | 23 | 1018.9 |
| 20260905161122 | 79 | 214 | 2.0 | 8.0 | 0.00 | 0.00 | 0.00 | 21 | 1018.9 |
| 20260905160622 | 79 | 144 | 2.0 | 9.0 | 0.00 | 0.00 | 0.00 | 22 | 1018.9 |
| 20260905160121 | 79 | 203 | 4.0 | 9.0 | 0.00 | 0.00 | 0.00 | 22 | 1019.0 |
| 20260905155615 | 79 | 296 | 0.0 | 3.0 | 0.00 | 0.00 | 0.00 | 23 | 1018.8 |
| 20260905155116 | 79 | 222 | 1.0 | 5.0 | 0.00 | 0.00 | 0.00 | 24 | 1018.8 |
| 20260905154618 | 78 | 198 | 1.0 | 5.0 | 0.00 | 0.00 | 0.00 | 24 | 1018.8 |
| 20260905154125 | 78 | 129 | 1.0 | 2.0 | 0.00 | 0.00 | 0.00 | 26 | 1018.9 |
| 20260905153626 | 78 | 293 | 1.0 | 4.0 | 0.00 | 0.00 | 0.00 | 25 | 1018.9 |
| 20260905153136 | 77 | 238 | 1.0 | 6.0 | 0.00 | 0.00 | 0.00 | 25 | 1018.9 |
| 20260905152615 | 78 | 148 | 3.0 | 6.0 | 0.00 | 0.00 | 0.00 | 24 | 1018.9 |
| 20260905152114 | 77 | 155 | 0.0 | 4.0 | 0.00 | 0.00 | 0.00 | 25 | 1018.8 |
| 20260905151616 | 77 | 218 | 2.0 | 5.0 | 0.00 | 0.00 | 0.00 | 25 | 1018.9 |
| 20260905151144 | 77 | 123 | 3.0 | 5.0 | 0.00 | 0.00 | 0.00 | 25 | 1018.9 |
| 20260905150625 | 76 | 151 | 1.0 | 4.0 | 0.00 | 0.00 | 0.00 | 24 | 1018.8 |
| 20260905150113 | 76 | 201 | 1.0 | 4.0 | 0.00 | 0.00 | 0.00 | 25 | 1018.8 |
| 20260905145615 | 76 | 159 | 1.0 | 4.0 | 0.00 | 0.00 | 0.00 | 24 | 1018.8 |
| 20260905145117 | 76 | 145 | 1.0 | 5.0 | 0.00 | 0.00 | 0.00 | 25 | 1018.9 |
| 20260905144626 | 75 | 209 | 2.0 | 5.0 | 0.00 | 0.00 | 0.00 | 24 | 1018.7 |
| 20260905144155 | 75 | 140 | 1.0 | 4.0 | 0.00 | 0.00 | 0.00 | 24 | 1018.7 |
| 20260905143636 | 74 | 142 | 1.0 | 5.0 | 0.00 | 0.00 | 0.00 | 25 | 1018.6 |
| 20260905143116 | 74 | 112 | 2.0 | 5.0 | 0.00 | 0.00 | 0.00 | 26 | 1018.6 |
| 20260905142626 | 72 | 111 | 1.0 | 2.0 | 0.00 | 0.00 | 0.00 | 26 | 1018.5 |
| 20260905142128 | 71 | 160 | 0.0 | 3.0 | 0.00 | 0.00 | 0.00 | 25 | 1018.5 |
| 20260905141637 | 71 | 147 | 1.0 | 3.0 | 0.00 | 0.00 | 0.00 | 27 | 1018.5 |
| 20260905141118 | 70 | 75 | 1.0 | 1.0 | 0.00 | 0.00 | 0.00 | 26 | 1018.4 |
| 20260905140619 | 71 | 117 | 0.0 | 2.0 | 0.00 | 0.00 | 0.00 | 25 | 1018.4 |
| 20260905140127 | 72 | 110 | 1.0 | 5.0 | 0.00 | 0.00 | 0.00 | 25 | 1018.4 |
| 20260905135629 | 71 | 127 | 2.0 | 8.0 | 0.00 | 0.00 | 0.00 | 24 | 1018.3 |
| 20260905135138 | 71 | 141 | 1.0 | 8.0 | 0.00 | 0.00 | 0.00 | 24 | 1018.3 |
| 20260905134639 | 71 | 98 | 1.0 | 3.0 | 0.00 | 0.00 | 0.00 | 26 | 1018.3 |
| 20260905134143 | 72 | 90 | 1.0 | 4.0 | 0.00 | 0.00 | 0.00 | 24 | 1018.1 |
| 20260905133625 | 71 | 85 | 2.0 | 7.0 | 0.00 | 0.00 | 0.00 | 25 | 1018.0 |
| 20260905133133 | 70 | 53 | 2.0 | 7.0 | 0.00 | 0.00 | 0.00 | 24 | 1018.0 |
| 20260905132619 | 70 | 58 | 0.0 | 2.0 | 0.00 | 0.00 | 0.00 | 26 | 1018.0 |
| 20260905132136 | 70 | 68 | 0.0 | 2.0 | 0.00 | 0.00 | 0.00 | 26 | 1017.9 |
| 20260905131624 | 70 | 56 | 1.0 | 2.0 | 0.00 | 0.00 | 0.00 | 25 | 1017.7 |
| 20260905131122 | 70 | 65 | 1.0 | 5.0 | 0.00 | 0.00 | 0.00 | 24 | 1017.7 |
| 20260905130631 | 70 | 208 | 1.0 | 5.0 | 0.00 | 0.00 | 0.00 | 24 | 1017.6 |
| 20260905130200 | 70 | 64 | 2.0 | 5.0 | 0.00 | 0.00 | 0.00 | 24 | 1017.6 |
| 20260905125636 | 70 | 113 | 1.0 | 3.0 | 0.00 | 0.00 | 0.00 | 25 | 1017.5 |
| 20260905125123 | 70 | 64 | 0.0 | 2.0 | 0.00 | 0.00 | 0.00 | 25 | 1017.5 |
| 20260905124625 | 70 | 69 | 1.0 | 2.0 | 0.00 | 0.00 | 0.00 | 24 | 1017.3 |
| 20260905124127 | 71 | 77 | 1.0 | 5.0 | 0.00 | 0.00 | 0.00 | 24 | 1017.3 |
| 20260905123635 | 71 | 141 | 1.0 | 5.0 | 0.00 | 0.00 | 0.00 | 23 | 1017.2 |
| 20260905123118 | 71 | 151 | 1.0 | 6.0 | 0.00 | 0.00 | 0.00 | 23 | 1017.1 |
| 20260905122620 | 71 | 139 | 2.0 | 6.0 | 0.00 | 0.00 | 0.00 | 23 | 1017.1 |
| 20260905122148 | 71 | 125 | 1.0 | 4.0 | 0.00 | 0.00 | 0.00 | 24 | 1017.1 |
| 20260905121656 | 72 | 123 | 1.0 | 7.0 | 0.00 | 0.00 | 0.00 | 23 | 1017.0 |
| 20260905121115 | 72 | 105 | 1.0 | 5.0 | 0.00 | 0.00 | 0.00 | 24 | 1017.1 |
| 20260905120643 | 72 | 120 | 3.0 | 6.0 | 0.00 | 0.00 | 0.00 | 23 | 1017.1 |
| 20260905120122 | 72 | 137 | 2.0 | 6.0 | 0.00 | 0.00 | 0.00 | 23 | 1017.1 |
| 20260905115631 | 72 | 198 | 3.0 | 6.0 | 0.00 | 0.00 | 0.00 | 23 | 1017.2 |
| 20260905115131 | 72 | 102 | 2.0 | 4.0 | 0.00 | 0.00 | 0.00 | 23 | 1017.2 |
| 20260905114613 | 72 | 86 | 1.0 | 6.0 | 0.00 | 0.00 | 0.00 | 23 | 1017.2 |
| 20260905114121 | 72 | 144 | 2.0 | 6.0 | 0.00 | 0.00 | 0.00 | 23 | 1017.2 |
| 20260905113622 | 72 | 121 | 2.0 | 6.0 | 0.00 | 0.00 | 0.00 | 23 | 1017.1 |
| 20260905113122 | 72 | 133 | 2.0 | 6.0 | 0.00 | 0.00 | 0.00 | 23 | 1017.1 |
| 20260905112632 | 72 | 123 | 3.0 | 8.0 | 0.00 | 0.00 | 0.00 | 23 | 1017.2 |
| 20260905112114 | 73 | 241 | 3.0 | 8.0 | 0.00 | 0.00 | 0.00 | 23 | 1017.2 |
| 20260905111615 | 73 | 146 | 2.0 | 6.0 | 0.00 | 0.00 | 0.00 | 24 | 1017.1 |
| 20260905111125 | 73 | 133 | 3.0 | 7.0 | 0.00 | 0.00 | 0.00 | 23 | 1017.0 |
| 20260905110627 | 73 | 127 | 3.0 | 7.0 | 0.00 | 0.00 | 0.00 | 23 | 1017.0 |
| 20260905110135 | 73 | 163 | 3.0 | 7.0 | 0.00 | 0.00 | 0.00 | 23 | 1016.9 |
| 20260905105637 | 73 | 131 | 3.0 | 7.0 | 0.00 | 0.00 | 0.00 | 23 | 1016.9 |
| 20260905105143 | 73 | 139 | 3.0 | 7.0 | 0.00 | 0.00 | 0.00 | 23 | 1016.9 |
| 20260905104623 | 74 | 116 | 3.0 | 11.0 | 0.00 | 0.00 | 0.00 | 23 | 1016.8 |
| 20260905104130 | 74 | 152 | 3.0 | 11.0 | 0.00 | 0.00 | 0.00 | 23 | 1016.8 |
| 20260905103630 | 74 | 129 | 4.0 | 15.0 | 0.00 | 0.00 | 0.00 | 23 | 1016.8 |
| 20260905103132 | 74 | 164 | 6.0 | 15.0 | 0.00 | 0.00 | 0.00 | 23 | 1016.8 |
| 20260905102620 | 74 | 153 | 4.0 | 10.0 | 0.00 | 0.00 | 0.00 | 23 | 1016.8 |
| 20260905102121 | 74 | 164 | 6.0 | 10.0 | 0.00 | 0.00 | 0.00 | 24 | 1016.7 |
| 20260905101622 | 74 | 107 | 4.0 | 9.0 | 0.00 | 0.00 | 0.00 | 25 | 1016.7 |
| 20260905101132 | 74 | 148 | 3.0 | 11.0 | 0.00 | 0.00 | 0.00 | 25 | 1016.7 |
| 20260905100613 | 74 | 159 | 5.0 | 11.0 | 0.00 | 0.00 | 0.00 | 26 | 1016.7 |
| 20260905100115 | 74 | 146 | 3.0 | 9.0 | 0.00 | 0.00 | 0.00 | 27 | 1016.7 |
| 20260905095625 | 74 | 136 | 3.0 | 7.0 | 0.00 | 0.00 | 0.00 | 27 | 1016.6 |
| 20260905095153 | 74 | 129 | 3.0 | 9.0 | 0.00 | 0.00 | 0.00 | 27 | 1016.6 |
| 20260905094613 | 74 | 184 | 5.0 | 9.0 | 0.00 | 0.00 | 0.00 | 27 | 1016.6 |
| 20260905094114 | 74 | 161 | 3.0 | 8.0 | 0.00 | 0.00 | 0.00 | 29 | 1016.5 |
| 20260905093643 | 74 | 172 | 2.0 | 9.0 | 0.00 | 0.00 | 0.00 | 29 | 1016.5 |
| 20260905093124 | 74 | 174 | 2.0 | 9.0 | 0.00 | 0.00 | 0.00 | 29 | 1016.5 |
| 20260905092632 | 74 | 123 | 3.0 | 6.0 | 0.00 | 0.00 | 0.00 | 29 | 1016.3 |
| 20260905092134 | 74 | 128 | 2.0 | 6.0 | 0.00 | 0.00 | 0.00 | 29 | 1016.4 |
| 20260905091611 | 74 | 101 | 1.0 | 6.0 | 0.00 | 0.00 | 0.00 | 29 | 1016.4 |
| 20260905091116 | 75 | 125 | 2.0 | 7.0 | 0.00 | 0.00 | 0.00 | 28 | 1016.3 |
| 20260905090617 | 75 | 145 | 4.0 | 8.0 | 0.00 | 0.00 | 0.00 | 28 | 1016.2 |
| 20260905090126 | 75 | 151 | 4.0 | 8.0 | 0.00 | 0.00 | 0.00 | 28 | 1016.2 |
| 20260905085656 | 75 | 126 | 3.0 | 11.0 | 0.00 | 0.00 | 0.00 | 28 | 1016.1 |
| 20260905085136 | 75 | 136 | 4.0 | 10.0 | 0.00 | 0.00 | 0.00 | 27 | 1016.2 |
| 20260905084617 | 75 | 122 | 2.0 | 12.0 | 0.00 | 0.00 | 0.00 | 28 | 1016.1 |
| 20260905084126 | 75 | 195 | 5.0 | 12.0 | 0.00 | 0.00 | 0.00 | 28 | 1016.1 |
| 20260905083647 | 75 | 174 | 3.0 | 6.0 | 0.00 | 0.00 | 0.00 | 28 | 1016.0 |
| 20260905083115 | 75 | 130 | 2.0 | 5.0 | 0.00 | 0.00 | 0.00 | 28 | 1015.9 |
| 20260905082615 | 75 | 150 | 2.0 | 8.0 | 0.00 | 0.00 | 0.00 | 28 | 1015.9 |
| 20260905082116 | 75 | 143 | 3.0 | 8.0 | 0.00 | 0.00 | 0.00 | 28 | 1015.8 |
| 20260905081626 | 75 | 131 | 3.0 | 7.0 | 0.00 | 0.00 | 0.00 | 28 | 1015.8 |
| 20260905081126 | 76 | 200 | 2.0 | 11.0 | 0.00 | 0.00 | 0.00 | 27 | 1015.9 |
| 20260905080626 | 76 | 157 | 5.0 | 13.0 | 0.00 | 0.00 | 0.00 | 27 | 1015.9 |
| 20260905080115 | 76 | 152 | 5.0 | 13.0 | 0.00 | 0.00 | 0.00 | 27 | 1015.9 |
| 20260905075616 | 76 | 121 | 4.0 | 8.0 | 0.00 | 0.00 | 0.00 | 27 | 1015.8 |
| 20260905075124 | 76 | 157 | 4.0 | 11.0 | 0.00 | 0.00 | 0.00 | 27 | 1015.9 |
| 20260905074626 | 76 | 140 | 4.0 | 9.0 | 0.00 | 0.00 | 0.00 | 27 | 1015.8 |
| 20260905074134 | 76 | 146 | 3.0 | 7.0 | 0.00 | 0.00 | 0.00 | 27 | 1015.8 |
| 20260905073614 | 77 | 165 | 3.0 | 15.0 | 0.00 | 0.00 | 0.00 | 27 | 1015.6 |
| 20260905073136 | 77 | 146 | 4.0 | 15.0 | 0.00 | 0.00 | 0.00 | 26 | 1015.6 |
| 20260905072624 | 77 | 184 | 6.0 | 15.0 | 0.00 | 0.00 | 0.00 | 27 | 1015.4 |
| 20260905072125 | 77 | 152 | 2.0 | 11.0 | 0.00 | 0.00 | 0.00 | 27 | 1015.4 |
| 20260905071633 | 77 | 207 | 4.0 | 11.0 | 0.00 | 0.00 | 0.00 | 27 | 1015.3 |
| 20260905071115 | 77 | 114 | 2.0 | 8.0 | 0.00 | 0.00 | 0.00 | 27 | 1015.2 |
| 20260905070622 | 77 | 129 | 4.0 | 8.0 | 0.00 | 0.00 | 0.00 | 27 | 1015.2 |
| 20260905070123 | 77 | 134 | 4.0 | 7.0 | 0.00 | 0.00 | 0.00 | 26 | 1015.1 |
| 20260905065632 | 77 | 129 | 4.0 | 7.0 | 0.00 | 0.00 | 0.00 | 27 | 1015.0 |
| 20260905065112 | 77 | 98 | 3.0 | 10.0 | 0.00 | 0.00 | 0.00 | 26 | 1015.0 |
| 20260905064613 | 78 | 141 | 4.0 | 10.0 | 0.00 | 0.00 | 0.00 | 26 | 1015.0 |
| 20260905064122 | 77 | 133 | 3.0 | 8.0 | 0.00 | 0.00 | 0.00 | 26 | 1014.9 |
| 20260905063624 | 77 | 113 | 3.0 | 8.0 | 0.00 | 0.00 | 0.00 | 26 | 1014.9 |
| 20260905063132 | 77 | 146 | 3.0 | 8.0 | 0.00 | 0.00 | 0.00 | 26 | 1014.7 |
| 20260905062122 | 78 | 146 | 3.0 | 11.0 | 0.00 | 0.00 | 0.00 | 26 | 1014.7 |
| 20260905061624 | 78 | 173 | 2.0 | 15.0 | 0.00 | 0.00 | 0.00 | 26 | 1014.5 |
| 20260905061133 | 78 | 197 | 4.0 | 15.0 | 0.00 | 0.00 | 0.00 | 26 | 1014.4 |
| 20260905060615 | 78 | 128 | 3.0 | 7.0 | 0.00 | 0.00 | 0.00 | 25 | 1014.4 |
| 20260905060116 | 78 | 124 | 3.0 | 10.0 | 0.00 | 0.00 | 0.00 | 25 | 1014.3 |
| 20260905055626 | 78 | 105 | 5.0 | 10.0 | 0.00 | 0.00 | 0.00 | 25 | 1014.2 |
| 20260905055127 | 78 | 186 | 4.0 | 7.0 | 0.00 | 0.00 | 0.00 | 25 | 1014.2 |
| 20260905054636 | 78 | 153 | 2.0 | 7.0 | 0.00 | 0.00 | 0.00 | 25 | 1014.2 |
| 20260905054117 | 79 | 136 | 2.0 | 13.0 | 0.00 | 0.00 | 0.00 | 25 | 1014.1 |
| 20260905053620 | 79 | 199 | 5.0 | 13.0 | 0.00 | 0.00 | 0.00 | 24 | 1014.0 |
| 20260905053127 | 79 | 184 | 5.0 | 13.0 | 0.00 | 0.00 | 0.00 | 24 | 1014.1 |
| 20260905052629 | 79 | 139 | 7.0 | 13.0 | 0.00 | 0.00 | 0.00 | 24 | 1014.1 |
| 20260905052137 | 79 | 190 | 4.0 | 10.0 | 0.00 | 0.00 | 0.00 | 24 | 1013.9 |
| 20260905051639 | 79 | 174 | 5.0 | 10.0 | 0.00 | 0.00 | 0.00 | 24 | 1013.9 |
| 20260905051119 | 79 | 153 | 3.0 | 10.0 | 0.00 | 0.00 | 0.00 | 24 | 1013.9 |
| 20260905050628 | 79 | 155 | 3.0 | 9.0 | 0.00 | 0.00 | 0.00 | 24 | 1013.9 |
| 20260905050156 | 79 | 106 | 4.0 | 9.0 | 0.00 | 0.00 | 0.00 | 24 | 1013.9 |
| 20260905045616 | 78 | 181 | 2.0 | 8.0 | 0.00 | 0.00 | 0.00 | 24 | 1013.9 |
| 20260905045118 | 78 | 137 | 3.0 | 8.0 | 0.00 | 0.00 | 0.00 | 24 | 1013.9 |
| 20260905044626 | 79 | 134 | 1.0 | 5.0 | 0.00 | 0.00 | 0.00 | 23 | 1013.8 |
| 20260905044127 | 79 | 139 | 2.0 | 7.0 | 0.00 | 0.00 | 0.00 | 23 | 1013.7 |
| 20260905043635 | 79 | 208 | 4.0 | 8.0 | 0.00 | 0.00 | 0.00 | 24 | 1013.8 |
| 20260905043115 | 79 | 141 | 2.0 | 8.0 | 0.00 | 0.00 | 0.00 | 24 | 1013.7 |
| 20260905042616 | 79 | 139 | 2.0 | 5.0 | 0.00 | 0.00 | 0.00 | 24 | 1013.7 |
| 20260905042125 | 79 | 110 | 2.0 | 10.0 | 0.00 | 0.00 | 0.00 | 24 | 1013.7 |
| 20260905041627 | 80 | 129 | 4.0 | 10.0 | 0.00 | 0.00 | 0.00 | 23 | 1013.7 |
| 20260905041135 | 79 | 160 | 4.0 | 10.0 | 0.00 | 0.00 | 0.00 | 23 | 1013.6 |
| 20260905040615 | 80 | 138 | 4.0 | 7.0 | 0.00 | 0.00 | 0.00 | 23 | 1013.6 |
| 20260905040123 | 80 | 129 | 4.0 | 9.0 | 0.00 | 0.00 | 0.00 | 24 | 1013.6 |
| 20260905035624 | 80 | 191 | 5.0 | 12.0 | 0.00 | 0.00 | 0.00 | 23 | 1013.6 |
| 20260905035134 | 80 | 148 | 3.0 | 12.0 | 0.00 | 0.00 | 0.00 | 23 | 1013.6 |
| 20260905034614 | 80 | 198 | 3.0 | 11.0 | 0.00 | 0.00 | 0.00 | 24 | 1013.4 |
| 20260905034116 | 80 | 139 | 3.0 | 9.0 | 0.00 | 0.00 | 0.00 | 24 | 1013.3 |
| 20260905033625 | 80 | 148 | 4.0 | 9.0 | 0.00 | 0.00 | 0.00 | 24 | 1013.3 |
| 20260905033127 | 80 | 168 | 4.0 | 8.0 | 0.00 | 0.00 | 0.00 | 25 | 1013.3 |
| 20260905032636 | 80 | 147 | 3.0 | 8.0 | 0.00 | 0.00 | 0.00 | 25 | 1013.3 |
| 20260905032137 | 80 | 186 | 2.0 | 7.0 | 0.00 | 0.00 | 0.00 | 25 | 1013.2 |
| 20260905031617 | 80 | 134 | 2.0 | 6.0 | 0.00 | 0.00 | 0.00 | 25 | 1013.1 |
| 20260905031127 | 80 | 147 | 2.0 | 6.0 | 0.00 | 0.00 | 0.00 | 25 | 1013.1 |
| 20260905030629 | 80 | 154 | 2.0 | 6.0 | 0.00 | 0.00 | 0.00 | 25 | 1012.9 |
| 20260905030137 | 80 | 141 | 2.0 | 5.0 | 0.00 | 0.00 | 0.00 | 26 | 1012.9 |
| 20260905025618 | 80 | 116 | 3.0 | 5.0 | 0.00 | 0.00 | 0.00 | 25 | 1012.8 |
| 20260905025147 | 80 | 162 | 1.0 | 5.0 | 0.00 | 0.00 | 0.00 | 25 | 1012.7 |
| 20260905024628 | 80 | 128 | 2.0 | 5.0 | 0.00 | 0.00 | 0.00 | 25 | 1012.6 |
| 20260905024137 | 81 | 155 | 2.0 | 5.0 | 0.00 | 0.00 | 0.00 | 25 | 1012.5 |
| 20260905023617 | 81 | 189 | 2.0 | 5.0 | 0.00 | 0.00 | 0.00 | 25 | 1012.5 |
| 20260905023120 | 81 | 165 | 3.0 | 5.0 | 0.00 | 0.00 | 0.00 | 24 | 1012.4 |
| 20260905022628 | 81 | 105 | 2.0 | 5.0 | 0.00 | 0.00 | 0.00 | 24 | 1012.3 |
| 20260905022129 | 81 | 149 | 2.0 | 5.0 | 0.00 | 0.00 | 0.00 | 24 | 1012.2 |
| 20260905021657 | 82 | 189 | 2.0 | 6.0 | 0.00 | 0.00 | 0.00 | 24 | 1012.2 |
| 20260905021117 | 82 | 180 | 3.0 | 8.0 | 0.00 | 0.00 | 0.00 | 23 | 1012.1 |
| 20260905020619 | 82 | 174 | 4.0 | 8.0 | 0.00 | 0.00 | 0.00 | 23 | 1012.2 |
| 20260905020126 | 82 | 117 | 2.0 | 7.0 | 0.00 | 0.00 | 0.00 | 23 | 1012.1 |
| 20260905015627 | 83 | 189 | 3.0 | 10.0 | 0.00 | 0.00 | 0.00 | 23 | 1012.1 |
| 20260905015155 | 83 | 174 | 4.0 | 10.0 | 0.00 | 0.00 | 0.00 | 22 | 1012.1 |
| 20260905014636 | 84 | 237 | 3.0 | 9.0 | 0.00 | 0.00 | 0.00 | 22 | 1012.1 |
| 20260905014123 | 84 | 208 | 4.0 | 9.0 | 0.00 | 0.00 | 0.00 | 21 | 1012.1 |
| 20260905013624 | 85 | 151 | 3.0 | 8.0 | 0.00 | 0.00 | 0.00 | 21 | 1012.1 |
| 20260905013126 | 85 | 212 | 3.0 | 9.0 | 0.00 | 0.00 | 0.00 | 21 | 1012.1 |
| 20260905012634 | 85 | 212 | 4.0 | 9.0 | 0.00 | 0.00 | 0.00 | 20 | 1012.1 |
| 20260905012116 | 86 | 210 | 3.0 | 10.0 | 0.00 | 0.00 | 0.00 | 21 | 1012.1 |
| 20260905011636 | 86 | 202 | 2.0 | 6.0 | 0.00 | 0.00 | 0.00 | 20 | 1012.1 |
| 20260905011123 | 87 | 128 | 3.0 | 9.0 | 0.00 | 0.00 | 0.00 | 20 | 1012.1 |
| 20260905010626 | 87 | 204 | 1.0 | 9.0 | 0.00 | 0.00 | 0.00 | 20 | 1012.1 |
| 20260905010114 | 87 | 191 | 3.0 | 11.0 | 0.00 | 0.00 | 0.00 | 20 | 1012.1 |
| 20260905005615 | 87 | 219 | 3.0 | 11.0 | 0.00 | 0.00 | 0.00 | 19 | 1012.0 |
| 20260905005116 | 88 | 253 | 1.0 | 9.0 | 0.00 | 0.00 | 0.00 | 19 | 1012.0 |
| 20260905004624 | 88 | 228 | 2.0 | 9.0 | 0.00 | 0.00 | 0.00 | 19 | 1012.0 |
| 20260905004125 | 88 | 153 | 1.0 | 8.0 | 0.00 | 0.00 | 0.00 | 19 | 1011.9 |
| 20260905003626 | 88 | 213 | 3.0 | 8.0 | 0.00 | 0.00 | 0.00 | 19 | 1012.0 |
| 20260905002617 | 88 | 124 | 4.0 | 13.0 | 0.00 | 0.00 | 0.00 | 18 | 1011.9 |
| 20260905002146 | 88 | 235 | 7.0 | 13.0 | 0.00 | 0.00 | 0.00 | 17 | 1011.9 |
| 20260905001647 | 88 | 257 | 3.0 | 12.0 | 0.00 | 0.00 | 0.00 | 18 | 1011.9 |
| 20260905001133 | 88 | 203 | 4.0 | 11.0 | 0.00 | 0.00 | 0.00 | 17 | 1011.9 |
| 20260905000614 | 88 | 214 | 4.0 | 13.0 | 0.00 | 0.00 | 0.00 | 17 | 1012.0 |
| 20260905000116 | 88 | 144 | 6.0 | 18.0 | 0.00 | 0.00 | 0.00 | 16 | 1012.0 |
| 20260904235624 | 88 | 227 | 9.0 | 18.0 | 0.00 | 0.00 | 0.00 | 17 | 1012.0 |
| 20260904235153 | 88 | 255 | 8.0 | 14.0 | 0.00 | 0.00 | 0.00 | 16 | 1012.0 |
| 20260904234636 | 89 | 176 | 5.0 | 12.0 | 0.00 | 0.00 | 0.00 | 16 | 1012.0 |
| 20260904234116 | 89 | 212 | 3.0 | 12.0 | 0.00 | 0.00 | 0.00 | 17 | 1012.1 |
| 20260904233626 | 89 | 153 | 5.0 | 9.0 | 0.00 | 0.00 | 0.00 | 16 | 1012.0 |
| 20260904233147 | 89 | 155 | 2.0 | 14.0 | 0.00 | 0.00 | 0.00 | 17 | 1012.0 |
| 20260904232614 | 88 | 215 | 4.0 | 14.0 | 0.00 | 0.00 | 0.00 | 16 | 1012.1 |
| 20260904232114 | 89 | 202 | 4.0 | 8.0 | 0.00 | 0.00 | 0.00 | 16 | 1012.0 |
| 20260904231621 | 89 | 4 | 2.0 | 10.0 | 0.00 | 0.00 | 0.00 | 17 | 1012.1 |
| 20260904231124 | 88 | 137 | 4.0 | 13.0 | 0.00 | 0.00 | 0.00 | 16 | 1012.0 |
| 20260904230626 | 88 | 209 | 5.0 | 13.0 | 0.00 | 0.00 | 0.00 | 16 | 1012.2 |
| 20260904230114 | 88 | 203 | 3.0 | 10.0 | 0.00 | 0.00 | 0.00 | 17 | 1012.1 |
| 20260904225616 | 88 | 183 | 3.0 | 12.0 | 0.00 | 0.00 | 0.00 | 17 | 1012.2 |
| 20260904225124 | 88 | 174 | 6.0 | 12.0 | 0.00 | 0.00 | 0.00 | 15 | 1012.3 |
| 20260904224653 | 88 | 203 | 4.0 | 18.0 | 0.00 | 0.00 | 0.00 | 16 | 1012.4 |
| 20260904224113 | 88 | 182 | 5.0 | 14.0 | 0.00 | 0.00 | 0.00 | 16 | 1012.3 |
| 20260904223615 | 88 | 190 | 4.0 | 14.0 | 0.00 | 0.00 | 0.00 | 17 | 1012.4 |
| 20260904223117 | 88 | 200 | 3.0 | 17.0 | 0.00 | 0.00 | 0.00 | 17 | 1012.4 |